الصفحة الرئيسية
METAR-TAF:

METAR-TAF

مطار :

مطار ميتشيل رومان الدولي

كورور, Babeldaob, بالاو

دائرة عرض: 07-22N, خط طول: 134-32E, ارتفاع: 54 متر

مراقبة الطقس الحالي

تاريخ ووقت الإصدار 1ساعة و 17 دقيقة قبل الساعة 17:50UTC
رياح هادئة
درجة الحرارة 25°درجة مئوية
الرطوبة 94%
ضغط 1009 hPa
الرؤية: 22.5 كم
غيوم متفرقة على ارتفاع 1600 قدم, مزن ركامية عمودية.
غيوم مفككة على ارتفاع 30000 قدم

METAR: PTRO 161750Z 00000KT 14SM SCT016TCU BKN300 25/24 A2979 RMK TCU ALQDS

زمن: 04:07 (19:07 UTC)

توقعات

تاريخ ووقت الإصدار 1ساعة و 47 دقيقة قبل الساعة 17:20UTC
التوقعات صالحة من16 الساعة 18 UTC إلى 17 الساعة 18 UTC
ريح 7 عقدة من الغرب
الرؤية: 10 كم
غيوم متفرقة على ارتفاع 1600 قدم
غيوم مفككة على ارتفاع 12000 قدم
غيوم مفككة على ارتفاع 30000 قدم
زخات في الجوار

TAF: PTRO 161720Z 1618/1718 28007KT P6SM VCSH SCT016 BKN120 BKN300

أرصاد الطقس والتوقعات من أكثر من 4000 مطار (تقارير الطقس للمطار METAR والتنبؤ بالطقس بالمطارTAF).

المحطات المتاحة هي النقط الصفراء والحمراء على الخريطة.

حرك المؤشر فوق النقطة لمعرفة اسم المحطة.

ثم انقر لمعرفة أرصاد وتوقعات الطقس.

لتغيير الخارطة: اضغط على الأزرار الخضراء مع رمز الصليب الأسود للتكبير. على الزر الأخضر مع شرطة للتصغير، أو على الأسهم الخضراء للخرائط المجاورة.


METAR-TAF: